Terminal Aerodrome Forecast
Issued by NWS Charleston, WV

Current Version | Previous Version | Graphics & Text | Print | Product List | Glossary On
Versions: 1 2 3 4 5 6 7 8 9 10 11 12 13 14 15 16 17 18 19 20 21
000
FTUS41 KRLX 250300 AAA
TAFBKW
TAF AMD
KBKW 250306Z 2503/2524 26011KT P6SM BKN040
     FM250600 28011KT P6SM SCT045
     FM251400 28008G15KT P6SM SCT090=

USA.gov is the U.S. government's official web portal to all federal, state and local government web resources and services.